METAR Data
IDs: Format: Raw Decoded Include TAF

Data at: 0233 UTC 12 May 2021

EGAC 120220Z AUTO 07003KT 0600 FG NCD 06/05 Q1005

TAF EGAC 111704Z 1118/1121 14009KT 9999 FEW040

EGCC 120220Z AUTO 18003KT 7000 BKN022 OVC046 06/06 Q1005 TEMPO 4000 BR

TAF AMD EGCC 120227Z 1202/1306 VRB04KT 9999 SCT030
  TEMPO 1202/1206 3000 BR BKN008
  PROB30
  TEMPO 1202/1206 0300 FG BKN001
  BECMG 1203/1206 21010KT
  TEMPO 1210/1220 7000 SHRA
  BECMG 1211/1214 27005KT
  PROB30
  TEMPO 1212/1218 4000 +SHRA BKN014 BKN025CB


EGGD 120220Z AUTO 18004KT 9999 -RA BKN011 OVC045 07/05 Q1007

TAF EGGD 112304Z 1200/1224 22010KT 9999 FEW010 SCT025
  TEMPO 1200/1207 BKN008
  PROB30
  TEMPO 1200/1204 6000 SHRA
  PROB40
  TEMPO 1208/1216 6000 SHRA
  BECMG 1214/1217 VRB03KT
  TEMPO 1216/1224 6000 RA BKN012
  PROB30
  TEMPO 1218/1224 4000 +RA BKN008